sensor_id;sensor_type;location;lat;lon;timestamp;P1;durP1;ratioP1;P2;durP2;ratioP2
52918;SDS011;38793;52.690;6.812;2023-01-23T00:00:34;18.00;;;11.45;;
52918;SDS011;38793;52.690;6.812;2023-01-23T00:03:01;18.27;;;10.93;;
52918;SDS011;38793;52.690;6.812;2023-01-23T00:05:27;26.17;;;12.93;;
52918;SDS011;38793;52.690;6.812;2023-01-23T00:07:52;22.87;;;12.83;;
52918;SDS011;38793;52.690;6.812;2023-01-23T00:10:18;19.40;;;11.93;;
52918;SDS011;38793;52.690;6.812;2023-01-23T00:12:44;21.43;;;11.93;;
52918;SDS011;38793;52.690;6.812;2023-01-23T00:15:12;20.67;;;12.20;;
52918;SDS011;38793;52.690;6.812;2023-01-23T00:17:39;21.77;;;11.98;;
52918;SDS011;38793;52.690;6.812;2023-01-23T00:20:06;19.52;;;12.90;;
52918;SDS011;38793;52.690;6.812;2023-01-23T00:22:33;18.50;;;11.48;;
52918;SDS011;38793;52.690;6.812;2023-01-23T00:24:59;21.90;;;12.57;;
52918;SDS011;38793;52.690;6.812;2023-01-23T00:27:24;23.90;;;12.47;;
52918;SDS011;38793;52.690;6.812;2023-01-23T00:29:53;21.50;;;12.33;;
52918;SDS011;38793;52.690;6.812;2023-01-23T00:32:19;16.50;;;10.63;;
52918;SDS011;38793;52.690;6.812;2023-01-23T00:34:45;18.70;;;11.70;;
52918;SDS011;38793;52.690;6.812;2023-01-23T00:37:11;21.00;;;12.27;;
52918;SDS011;38793;52.690;6.812;2023-01-23T00:39:37;19.40;;;12.30;;
52918;SDS011;38793;52.690;6.812;2023-01-23T00:42:03;19.73;;;11.13;;
52918;SDS011;38793;52.690;6.812;2023-01-23T00:44:29;17.80;;;11.47;;
52918;SDS011;38793;52.690;6.812;2023-01-23T00:46:55;17.10;;;11.73;;
52918;SDS011;38793;52.690;6.812;2023-01-23T00:49:21;21.80;;;11.73;;
52918;SDS011;38793;52.690;6.812;2023-01-23T00:51:47;21.95;;;11.52;;
52918;SDS011;38793;52.690;6.812;2023-01-23T00:54:12;16.30;;;11.53;;
52918;SDS011;38793;52.690;6.812;2023-01-23T00:56:38;21.17;;;10.97;;
52918;SDS011;38793;52.690;6.812;2023-01-23T00:59:04;21.23;;;10.20;;
52918;SDS011;38793;52.690;6.812;2023-01-23T01:01:29;20.50;;;12.20;;
52918;SDS011;38793;52.690;6.812;2023-01-23T01:03:56;25.75;;;13.95;;
52918;SDS011;38793;52.690;6.812;2023-01-23T01:06:22;21.50;;;10.77;;
52918;SDS011;38793;52.690;6.812;2023-01-23T01:08:48;18.10;;;12.27;;
52918;SDS011;38793;52.690;6.812;2023-01-23T01:11:14;21.53;;;11.47;;
52918;SDS011;38793;52.690;6.812;2023-01-23T01:13:39;20.63;;;11.33;;
52918;SDS011;38793;52.690;6.812;2023-01-23T01:16:06;19.88;;;11.48;;
52918;SDS011;38793;52.690;6.812;2023-01-23T01:18:32;22.23;;;11.77;;
52918;SDS011;38793;52.690;6.812;2023-01-23T01:20:58;15.82;;;10.90;;
52918;SDS011;38793;52.690;6.812;2023-01-23T01:23:24;20.20;;;11.10;;
52918;SDS011;38793;52.690;6.812;2023-01-23T01:25:50;22.50;;;10.75;;
52918;SDS011;38793;52.690;6.812;2023-01-23T01:28:16;15.47;;;10.73;;
52918;SDS011;38793;52.690;6.812;2023-01-23T01:30:41;16.33;;;11.55;;
52918;SDS011;38793;52.690;6.812;2023-01-23T01:33:07;18.90;;;12.17;;
52918;SDS011;38793;52.690;6.812;2023-01-23T01:35:35;17.30;;;11.82;;
52918;SDS011;38793;52.690;6.812;2023-01-23T01:38:03;18.40;;;12.07;;
52918;SDS011;38793;52.690;6.812;2023-01-23T01:40:32;22.90;;;13.00;;
52918;SDS011;38793;52.690;6.812;2023-01-23T01:43:00;23.83;;;12.48;;
52918;SDS011;38793;52.690;6.812;2023-01-23T01:50:59;17.67;;;11.82;;
52918;SDS011;38793;52.690;6.812;2023-01-23T01:53:27;20.92;;;12.10;;
52918;SDS011;38793;52.690;6.812;2023-01-23T01:55:55;21.35;;;11.57;;
52918;SDS011;38793;52.690;6.812;2023-01-23T01:58:21;17.40;;;12.02;;
52918;SDS011;38793;52.690;6.812;2023-01-23T02:00:47;23.63;;;12.60;;
52918;SDS011;38793;52.690;6.812;2023-01-23T02:03:12;21.87;;;12.70;;
52918;SDS011;38793;52.690;6.812;2023-01-23T02:05:44;18.15;;;11.18;;
52918;SDS011;38793;52.690;6.812;2023-01-23T02:11:08;24.30;;;11.63;;
52918;SDS011;38793;52.690;6.812;2023-01-23T02:13:35;22.43;;;12.23;;
52918;SDS011;38793;52.690;6.812;2023-01-23T02:16:07;22.02;;;12.15;;
52918;SDS011;38793;52.690;6.812;2023-01-23T02:18:37;19.15;;;12.93;;
52918;SDS011;38793;52.690;6.812;2023-01-23T02:21:06;21.63;;;12.35;;
52918;SDS011;38793;52.690;6.812;2023-01-23T02:23:47;21.58;;;12.65;;
52918;SDS011;38793;52.690;6.812;2023-01-23T02:26:39;24.40;;;12.50;;
52918;SDS011;38793;52.690;6.812;2023-01-23T02:29:08;22.83;;;13.27;;
52918;SDS011;38793;52.690;6.812;2023-01-23T02:31:35;22.50;;;11.90;;
52918;SDS011;38793;52.690;6.812;2023-01-23T02:34:02;29.65;;;14.50;;
52918;SDS011;38793;52.690;6.812;2023-01-23T02:36:30;22.20;;;12.88;;
52918;SDS011;38793;52.690;6.812;2023-01-23T02:41:33;21.70;;;12.23;;
52918;SDS011;38793;52.690;6.812;2023-01-23T02:44:06;23.08;;;13.65;;
52918;SDS011;38793;52.690;6.812;2023-01-23T02:46:37;22.23;;;12.23;;
52918;SDS011;38793;52.690;6.812;2023-01-23T02:49:03;22.25;;;12.45;;
52918;SDS011;38793;52.690;6.812;2023-01-23T02:51:29;21.60;;;12.97;;
52918;SDS011;38793;52.690;6.812;2023-01-23T02:53:55;19.80;;;11.90;;
52918;SDS011;38793;52.690;6.812;2023-01-23T02:56:20;16.00;;;12.17;;
52918;SDS011;38793;52.690;6.812;2023-01-23T02:58:46;26.33;;;13.13;;
52918;SDS011;38793;52.690;6.812;2023-01-23T03:01:30;18.55;;;12.43;;
52918;SDS011;38793;52.690;6.812;2023-01-23T03:03:59;17.90;;;12.48;;
52918;SDS011;38793;52.690;6.812;2023-01-23T03:06:30;21.15;;;12.60;;
52918;SDS011;38793;52.690;6.812;2023-01-23T03:09:04;21.25;;;12.10;;
52918;SDS011;38793;52.690;6.812;2023-01-23T03:11:32;25.75;;;13.18;;
52918;SDS011;38793;52.690;6.812;2023-01-23T03:13:58;22.67;;;12.93;;
52918;SDS011;38793;52.690;6.812;2023-01-23T03:16:24;24.93;;;13.73;;
52918;SDS011;38793;52.690;6.812;2023-01-23T03:18:49;22.60;;;14.03;;
52918;SDS011;38793;52.690;6.812;2023-01-23T03:21:15;22.07;;;13.67;;
52918;SDS011;38793;52.690;6.812;2023-01-23T03:23:40;25.03;;;14.30;;
52918;SDS011;38793;52.690;6.812;2023-01-23T03:26:08;22.70;;;13.88;;
52918;SDS011;38793;52.690;6.812;2023-01-23T03:28:34;18.53;;;12.70;;
52918;SDS011;38793;52.690;6.812;2023-01-23T03:31:18;18.90;;;12.95;;
52918;SDS011;38793;52.690;6.812;2023-01-23T03:33:44;21.67;;;13.60;;
52918;SDS011;38793;52.690;6.812;2023-01-23T03:36:09;23.23;;;14.53;;
52918;SDS011;38793;52.690;6.812;2023-01-23T03:38:36;24.65;;;13.70;;
52918;SDS011;38793;52.690;6.812;2023-01-23T03:41:02;16.65;;;12.65;;
52918;SDS011;38793;52.690;6.812;2023-01-23T03:43:46;26.27;;;14.30;;
52918;SDS011;38793;52.690;6.812;2023-01-23T03:46:11;22.60;;;14.40;;
52918;SDS011;38793;52.690;6.812;2023-01-23T03:48:37;21.47;;;12.10;;
52918;SDS011;38793;52.690;6.812;2023-01-23T03:51:03;24.50;;;14.75;;
52918;SDS011;38793;52.690;6.812;2023-01-23T03:53:29;19.20;;;13.80;;
52918;SDS011;38793;52.690;6.812;2023-01-23T03:55:55;18.77;;;13.23;;
52918;SDS011;38793;52.690;6.812;2023-01-23T03:58:21;22.60;;;14.43;;
52918;SDS011;38793;52.690;6.812;2023-01-23T04:00:46;24.87;;;14.40;;
52918;SDS011;38793;52.690;6.812;2023-01-23T04:03:12;19.10;;;13.57;;
52918;SDS011;38793;52.690;6.812;2023-01-23T04:05:37;21.37;;;13.47;;
52918;SDS011;38793;52.690;6.812;2023-01-23T04:08:03;21.40;;;13.10;;
52918;SDS011;38793;52.690;6.812;2023-01-23T04:10:29;19.53;;;13.30;;
52918;SDS011;38793;52.690;6.812;2023-01-23T04:12:54;21.77;;;13.83;;
52918;SDS011;38793;52.690;6.812;2023-01-23T04:15:20;25.03;;;13.83;;
52918;SDS011;38793;52.690;6.812;2023-01-23T04:17:45;23.97;;;14.80;;
52918;SDS011;38793;52.690;6.812;2023-01-23T04:20:11;27.43;;;14.43;;
52918;SDS011;38793;52.690;6.812;2023-01-23T04:22:37;24.27;;;14.10;;
52918;SDS011;38793;52.690;6.812;2023-01-23T04:25:03;20.60;;;14.93;;
52918;SDS011;38793;52.690;6.812;2023-01-23T04:27:29;23.95;;;14.32;;
52918;SDS011;38793;52.690;6.812;2023-01-23T04:29:55;21.60;;;15.30;;
52918;SDS011;38793;52.690;6.812;2023-01-23T04:32:22;21.67;;;14.57;;
52918;SDS011;38793;52.690;6.812;2023-01-23T04:34:48;26.33;;;15.90;;
52918;SDS011;38793;52.690;6.812;2023-01-23T04:37:14;25.60;;;14.73;;
52918;SDS011;38793;52.690;6.812;2023-01-23T04:39:40;21.33;;;14.30;;
52918;SDS011;38793;52.690;6.812;2023-01-23T04:42:05;22.63;;;13.83;;
52918;SDS011;38793;52.690;6.812;2023-01-23T04:44:31;24.07;;;14.87;;
52918;SDS011;38793;52.690;6.812;2023-01-23T04:46:56;24.77;;;14.83;;
52918;SDS011;38793;52.690;6.812;2023-01-23T04:49:22;29.73;;;15.33;;
52918;SDS011;38793;52.690;6.812;2023-01-23T04:51:49;28.13;;;14.18;;
52918;SDS011;38793;52.690;6.812;2023-01-23T04:54:15;25.95;;;16.25;;
52918;SDS011;38793;52.690;6.812;2023-01-23T04:56:42;25.88;;;15.50;;
52918;SDS011;38793;52.690;6.812;2023-01-23T04:59:08;26.73;;;14.13;;
52918;SDS011;38793;52.690;6.812;2023-01-23T05:01:34;21.08;;;14.00;;
52918;SDS011;38793;52.690;6.812;2023-01-23T05:04:00;24.63;;;15.30;;
52918;SDS011;38793;52.690;6.812;2023-01-23T05:06:26;27.92;;;15.55;;
52918;SDS011;38793;52.690;6.812;2023-01-23T05:08:51;25.37;;;14.73;;
52918;SDS011;38793;52.690;6.812;2023-01-23T05:11:17;23.63;;;13.83;;
52918;SDS011;38793;52.690;6.812;2023-01-23T05:13:42;21.67;;;14.40;;
52918;SDS011;38793;52.690;6.812;2023-01-23T05:16:08;27.60;;;14.23;;
52918;SDS011;38793;52.690;6.812;2023-01-23T05:18:34;27.87;;;15.70;;
52918;SDS011;38793;52.690;6.812;2023-01-23T05:20:59;23.10;;;14.93;;
52918;SDS011;38793;52.690;6.812;2023-01-23T05:23:25;20.47;;;14.80;;
52918;SDS011;38793;52.690;6.812;2023-01-23T05:25:51;19.30;;;13.67;;
52918;SDS011;38793;52.690;6.812;2023-01-23T05:28:16;23.83;;;13.87;;
52918;SDS011;38793;52.690;6.812;2023-01-23T05:30:42;19.73;;;14.20;;
52918;SDS011;38793;52.690;6.812;2023-01-23T05:33:07;25.00;;;14.93;;
52918;SDS011;38793;52.690;6.812;2023-01-23T05:35:33;26.53;;;14.37;;
52918;SDS011;38793;52.690;6.812;2023-01-23T05:37:59;21.43;;;15.73;;
52918;SDS011;38793;52.690;6.812;2023-01-23T05:40:24;26.40;;;15.00;;
52918;SDS011;38793;52.690;6.812;2023-01-23T05:42:50;19.93;;;14.17;;
52918;SDS011;38793;52.690;6.812;2023-01-23T05:45:16;20.97;;;13.70;;
52918;SDS011;38793;52.690;6.812;2023-01-23T05:47:41;23.58;;;14.88;;
52918;SDS011;38793;52.690;6.812;2023-01-23T05:50:08;20.10;;;14.10;;
52918;SDS011;38793;52.690;6.812;2023-01-23T05:52:37;19.25;;;14.30;;
52918;SDS011;38793;52.690;6.812;2023-01-23T05:55:03;21.23;;;13.83;;
52918;SDS011;38793;52.690;6.812;2023-01-23T05:57:29;25.75;;;15.60;;
52918;SDS011;38793;52.690;6.812;2023-01-23T05:59:54;26.83;;;16.10;;
52918;SDS011;38793;52.690;6.812;2023-01-23T06:02:20;21.13;;;14.47;;
52918;SDS011;38793;52.690;6.812;2023-01-23T06:04:46;27.53;;;14.13;;
52918;SDS011;38793;52.690;6.812;2023-01-23T06:07:13;26.17;;;15.02;;
52918;SDS011;38793;52.690;6.812;2023-01-23T06:09:40;23.67;;;15.35;;
52918;SDS011;38793;52.690;6.812;2023-01-23T06:12:06;24.90;;;16.63;;
52918;SDS011;38793;52.690;6.812;2023-01-23T06:14:33;24.50;;;15.43;;
52918;SDS011;38793;52.690;6.812;2023-01-23T06:16:58;20.43;;;13.90;;
52918;SDS011;38793;52.690;6.812;2023-01-23T06:19:24;23.07;;;13.80;;
52918;SDS011;38793;52.690;6.812;2023-01-23T06:21:49;19.30;;;13.50;;
52918;SDS011;38793;52.690;6.812;2023-01-23T06:24:15;20.23;;;13.50;;
52918;SDS011;38793;52.690;6.812;2023-01-23T06:26:40;20.57;;;13.60;;
52918;SDS011;38793;52.690;6.812;2023-01-23T06:29:06;19.83;;;13.90;;
52918;SDS011;38793;52.690;6.812;2023-01-23T06:31:32;19.20;;;13.67;;
52918;SDS011;38793;52.690;6.812;2023-01-23T06:33:57;19.77;;;13.97;;
52918;SDS011;38793;52.690;6.812;2023-01-23T06:36:23;23.15;;;14.40;;
52918;SDS011;38793;52.690;6.812;2023-01-23T06:38:50;25.48;;;14.57;;
52918;SDS011;38793;52.690;6.812;2023-01-23T06:41:16;19.08;;;13.57;;
52918;SDS011;38793;52.690;6.812;2023-01-23T06:43:42;18.73;;;14.02;;
52918;SDS011;38793;52.690;6.812;2023-01-23T06:46:07;24.87;;;15.13;;
52918;SDS011;38793;52.690;6.812;2023-01-23T06:48:34;18.65;;;13.20;;
52918;SDS011;38793;52.690;6.812;2023-01-23T06:51:00;20.67;;;14.05;;
52918;SDS011;38793;52.690;6.812;2023-01-23T06:55:52;22.30;;;13.98;;
52918;SDS011;38793;52.690;6.812;2023-01-23T06:58:18;23.43;;;13.83;;
52918;SDS011;38793;52.690;6.812;2023-01-23T07:00:44;19.40;;;13.63;;
52918;SDS011;38793;52.690;6.812;2023-01-23T07:03:10;20.37;;;14.97;;
52918;SDS011;38793;52.690;6.812;2023-01-23T07:05:38;20.10;;;14.20;;
52918;SDS011;38793;52.690;6.812;2023-01-23T07:08:05;25.55;;;14.40;;
52918;SDS011;38793;52.690;6.812;2023-01-23T07:10:32;22.35;;;14.40;;
52918;SDS011;38793;52.690;6.812;2023-01-23T07:12:58;23.92;;;14.30;;
52918;SDS011;38793;52.690;6.812;2023-01-23T07:15:24;19.27;;;13.97;;
52918;SDS011;38793;52.690;6.812;2023-01-23T07:17:50;23.03;;;14.27;;
52918;SDS011;38793;52.690;6.812;2023-01-23T07:20:15;21.13;;;14.83;;
52918;SDS011;38793;52.690;6.812;2023-01-23T07:22:41;17.20;;;12.13;;
52918;SDS011;38793;52.690;6.812;2023-01-23T07:25:07;24.00;;;12.20;;
52918;SDS011;38793;52.690;6.812;2023-01-23T07:27:33;20.73;;;13.65;;
52918;SDS011;38793;52.690;6.812;2023-01-23T07:29:58;25.63;;;16.13;;
52918;SDS011;38793;52.690;6.812;2023-01-23T07:32:24;23.03;;;14.43;;
52918;SDS011;38793;52.690;6.812;2023-01-23T07:34:49;26.40;;;13.47;;
52918;SDS011;38793;52.690;6.812;2023-01-23T07:37:17;29.23;;;14.88;;
52918;SDS011;38793;52.690;6.812;2023-01-23T07:39:42;27.57;;;14.03;;
52918;SDS011;38793;52.690;6.812;2023-01-23T07:42:12;30.42;;;12.93;;
52918;SDS011;38793;52.690;6.812;2023-01-23T07:44:37;25.23;;;13.65;;
52918;SDS011;38793;52.690;6.812;2023-01-23T07:47:03;23.40;;;16.30;;
52918;SDS011;38793;52.690;6.812;2023-01-23T07:49:28;27.57;;;14.10;;
52918;SDS011;38793;52.690;6.812;2023-01-23T07:51:54;27.30;;;15.27;;
52918;SDS011;38793;52.690;6.812;2023-01-23T07:54:20;20.57;;;14.13;;
52918;SDS011;38793;52.690;6.812;2023-01-23T07:56:47;24.90;;;15.13;;
52918;SDS011;38793;52.690;6.812;2023-01-23T07:59:14;22.85;;;13.90;;
52918;SDS011;38793;52.690;6.812;2023-01-23T08:01:39;21.53;;;13.17;;
52918;SDS011;38793;52.690;6.812;2023-01-23T08:04:05;21.80;;;13.33;;
52918;SDS011;38793;52.690;6.812;2023-01-23T08:06:30;21.30;;;13.97;;
52918;SDS011;38793;52.690;6.812;2023-01-23T08:08:58;22.38;;;13.63;;
52918;SDS011;38793;52.690;6.812;2023-01-23T08:11:23;18.53;;;14.03;;
52918;SDS011;38793;52.690;6.812;2023-01-23T08:13:50;15.82;;;12.27;;
52918;SDS011;38793;52.690;6.812;2023-01-23T08:16:16;21.85;;;12.60;;
52918;SDS011;38793;52.690;6.812;2023-01-23T08:18:42;15.50;;;12.13;;
52918;SDS011;38793;52.690;6.812;2023-01-23T08:21:08;21.08;;;13.60;;
52918;SDS011;38793;52.690;6.812;2023-01-23T08:23:34;19.00;;;13.50;;
52918;SDS011;38793;52.690;6.812;2023-01-23T08:26:01;24.13;;;13.93;;
52918;SDS011;38793;52.690;6.812;2023-01-23T08:28:28;18.80;;;13.40;;
52918;SDS011;38793;52.690;6.812;2023-01-23T08:30:54;18.33;;;13.10;;
52918;SDS011;38793;52.690;6.812;2023-01-23T08:33:23;23.80;;;14.52;;
52918;SDS011;38793;52.690;6.812;2023-01-23T08:38:16;20.05;;;12.27;;
52918;SDS011;38793;52.690;6.812;2023-01-23T08:40:43;23.58;;;14.75;;
52918;SDS011;38793;52.690;6.812;2023-01-23T08:43:09;16.25;;;12.65;;
52918;SDS011;38793;52.690;6.812;2023-01-23T08:45:37;17.50;;;12.55;;
52918;SDS011;38793;52.690;6.812;2023-01-23T08:48:09;21.80;;;14.30;;
52918;SDS011;38793;52.690;6.812;2023-01-23T08:50:36;19.17;;;12.80;;
52918;SDS011;38793;52.690;6.812;2023-01-23T08:53:01;19.47;;;13.87;;
52918;SDS011;38793;52.690;6.812;2023-01-23T08:55:27;25.70;;;12.90;;
52918;SDS011;38793;52.690;6.812;2023-01-23T08:57:53;18.73;;;13.38;;
52918;SDS011;38793;52.690;6.812;2023-01-23T09:00:19;22.90;;;13.60;;
52918;SDS011;38793;52.690;6.812;2023-01-23T09:02:45;17.98;;;12.43;;
52918;SDS011;38793;52.690;6.812;2023-01-23T09:07:37;19.15;;;12.68;;
52918;SDS011;38793;52.690;6.812;2023-01-23T09:10:04;16.58;;;12.05;;
52918;SDS011;38793;52.690;6.812;2023-01-23T09:14:57;19.42;;;12.05;;
52918;SDS011;38793;52.690;6.812;2023-01-23T09:17:23;17.13;;;12.20;;
52918;SDS011;38793;52.690;6.812;2023-01-23T09:19:49;20.23;;;12.63;;
52918;SDS011;38793;52.690;6.812;2023-01-23T09:22:15;14.68;;;11.95;;
52918;SDS011;38793;52.690;6.812;2023-01-23T09:24:41;20.73;;;13.35;;
52918;SDS011;38793;52.690;6.812;2023-01-23T09:27:07;21.27;;;12.50;;
52918;SDS011;38793;52.690;6.812;2023-01-23T09:29:33;21.92;;;13.90;;
52918;SDS011;38793;52.690;6.812;2023-01-23T09:31:59;21.13;;;14.63;;
52918;SDS011;38793;52.690;6.812;2023-01-23T09:34:26;22.70;;;13.25;;
52918;SDS011;38793;52.690;6.812;2023-01-23T09:36:52;20.23;;;12.93;;
52918;SDS011;38793;52.690;6.812;2023-01-23T09:39:17;21.67;;;12.83;;
52918;SDS011;38793;52.690;6.812;2023-01-23T09:41:44;15.18;;;11.50;;
52918;SDS011;38793;52.690;6.812;2023-01-23T09:46:52;14.52;;;11.60;;
52918;SDS011;38793;52.690;6.812;2023-01-23T09:49:26;18.52;;;11.65;;
52918;SDS011;38793;52.690;6.812;2023-01-23T09:52:12;20.40;;;11.57;;
52918;SDS011;38793;52.690;6.812;2023-01-23T09:54:45;17.15;;;10.98;;
52918;SDS011;38793;52.690;6.812;2023-01-23T09:57:22;17.80;;;12.00;;
52918;SDS011;38793;52.690;6.812;2023-01-23T10:00:14;17.98;;;11.90;;
52918;SDS011;38793;52.690;6.812;2023-01-23T10:02:42;21.58;;;12.20;;
52918;SDS011;38793;52.690;6.812;2023-01-23T10:05:12;18.95;;;13.05;;
52918;SDS011;38793;52.690;6.812;2023-01-23T10:11:26;13.93;;;11.35;;
52918;SDS011;38793;52.690;6.812;2023-01-23T10:24:52;14.48;;;10.98;;
52918;SDS011;38793;52.690;6.812;2023-01-23T10:27:23;15.30;;;11.90;;
52918;SDS011;38793;52.690;6.812;2023-01-23T10:32:25;17.42;;;12.65;;
52918;SDS011;38793;52.690;6.812;2023-01-23T10:34:57;15.65;;;10.50;;
52918;SDS011;38793;52.690;6.812;2023-01-23T10:40:13;14.27;;;9.77;;
52918;SDS011;38793;52.690;6.812;2023-01-23T10:43:09;20.20;;;10.25;;
52918;SDS011;38793;52.690;6.812;2023-01-23T10:45:44;11.90;;;10.27;;
52918;SDS011;38793;52.690;6.812;2023-01-23T10:50:56;15.85;;;9.65;;
52918;SDS011;38793;52.690;6.812;2023-01-23T10:53:22;13.52;;;10.85;;
52918;SDS011;38793;52.690;6.812;2023-01-23T10:55:49;23.92;;;12.77;;
52918;SDS011;38793;52.690;6.812;2023-01-23T10:58:27;14.45;;;10.90;;
52918;SDS011;38793;52.690;6.812;2023-01-23T11:01:00;15.75;;;10.80;;
52918;SDS011;38793;52.690;6.812;2023-01-23T11:03:27;15.30;;;10.87;;
52918;SDS011;38793;52.690;6.812;2023-01-23T11:06:02;15.10;;;11.73;;
52918;SDS011;38793;52.690;6.812;2023-01-23T11:11:20;14.27;;;10.85;;
52918;SDS011;38793;52.690;6.812;2023-01-23T11:13:49;11.75;;;8.95;;
52918;SDS011;38793;52.690;6.812;2023-01-23T11:16:28;13.18;;;9.73;;
52918;SDS011;38793;52.690;6.812;2023-01-23T11:18:55;14.25;;;10.40;;
52918;SDS011;38793;52.690;6.812;2023-01-23T11:21:37;12.77;;;9.52;;
52918;SDS011;38793;52.690;6.812;2023-01-23T11:26:46;13.02;;;10.52;;
52918;SDS011;38793;52.690;6.812;2023-01-23T11:29:22;13.88;;;11.18;;
52918;SDS011;38793;52.690;6.812;2023-01-23T11:31:51;16.70;;;10.70;;
52918;SDS011;38793;52.690;6.812;2023-01-23T11:34:22;15.43;;;11.13;;
52918;SDS011;38793;52.690;6.812;2023-01-23T11:42:00;14.90;;;10.00;;
52918;SDS011;38793;52.690;6.812;2023-01-23T11:44:26;14.15;;;10.95;;
52918;SDS011;38793;52.690;6.812;2023-01-23T12:00:29;12.30;;;10.90;;
52918;SDS011;38793;52.690;6.812;2023-01-23T12:11:19;14.25;;;11.25;;
52918;SDS011;38793;52.690;6.812;2023-01-23T12:19:20;14.98;;;10.77;;
52918;SDS011;38793;52.690;6.812;2023-01-23T12:22:11;14.35;;;10.15;;
52918;SDS011;38793;52.690;6.812;2023-01-23T12:24:58;15.13;;;10.20;;
52918;SDS011;38793;52.690;6.812;2023-01-23T12:27:41;13.00;;;10.77;;
52918;SDS011;38793;52.690;6.812;2023-01-23T12:30:30;12.27;;;10.40;;
52918;SDS011;38793;52.690;6.812;2023-01-23T12:41:49;16.45;;;10.98;;
52918;SDS011;38793;52.690;6.812;2023-01-23T12:47:00;14.13;;;10.90;;
52918;SDS011;38793;52.690;6.812;2023-01-23T12:52:14;14.80;;;10.60;;
52918;SDS011;38793;52.690;6.812;2023-01-23T12:57:47;13.93;;;10.75;;
52918;SDS011;38793;52.690;6.812;2023-01-23T13:03:29;12.52;;;9.77;;
52918;SDS011;38793;52.690;6.812;2023-01-23T13:06:25;13.15;;;10.57;;
52918;SDS011;38793;52.690;6.812;2023-01-23T13:14:45;13.93;;;11.18;;
52918;SDS011;38793;52.690;6.812;2023-01-23T13:25:47;14.43;;;10.25;;
52918;SDS011;38793;52.690;6.812;2023-01-23T13:28:33;15.35;;;11.85;;
52918;SDS011;38793;52.690;6.812;2023-01-23T13:31:04;19.67;;;11.07;;
52918;SDS011;38793;52.690;6.812;2023-01-23T13:36:12;15.32;;;11.30;;
52918;SDS011;38793;52.690;6.812;2023-01-23T13:39:31;13.07;;;10.25;;
52918;SDS011;38793;52.690;6.812;2023-01-23T13:41:41;15.00;;;11.30;;
52918;SDS011;38793;52.690;6.812;2023-01-23T13:44:23;13.73;;;11.00;;
52918;SDS011;38793;52.690;6.812;2023-01-23T13:52:24;15.45;;;11.30;;
52918;SDS011;38793;52.690;6.812;2023-01-23T13:55:23;14.13;;;10.68;;
52918;SDS011;38793;52.690;6.812;2023-01-23T13:58:16;19.95;;;11.68;;
52918;SDS011;38793;52.690;6.812;2023-01-23T14:00:53;18.65;;;12.02;;
52918;SDS011;38793;52.690;6.812;2023-01-23T14:03:38;11.93;;;9.80;;
52918;SDS011;38793;52.690;6.812;2023-01-23T14:06:30;13.85;;;9.90;;
52918;SDS011;38793;52.690;6.812;2023-01-23T14:09:00;15.82;;;11.05;;
52918;SDS011;38793;52.690;6.812;2023-01-23T14:11:30;16.23;;;10.97;;
52918;SDS011;38793;52.690;6.812;2023-01-23T14:14:02;12.52;;;11.23;;
52918;SDS011;38793;52.690;6.812;2023-01-23T14:16:47;16.58;;;11.27;;
52918;SDS011;38793;52.690;6.812;2023-01-23T14:19:20;14.13;;;11.40;;
52918;SDS011;38793;52.690;6.812;2023-01-23T14:21:50;16.02;;;11.55;;
52918;SDS011;38793;52.690;6.812;2023-01-23T14:24:21;18.02;;;11.45;;
52918;SDS011;38793;52.690;6.812;2023-01-23T14:27:08;16.08;;;11.65;;
52918;SDS011;38793;52.690;6.812;2023-01-23T14:30:12;14.77;;;11.90;;
52918;SDS011;38793;52.690;6.812;2023-01-23T14:32:44;17.87;;;11.37;;
52918;SDS011;38793;52.690;6.812;2023-01-23T14:35:17;15.55;;;12.02;;
52918;SDS011;38793;52.690;6.812;2023-01-23T14:37:51;17.15;;;12.93;;
52918;SDS011;38793;52.690;6.812;2023-01-23T14:40:20;17.50;;;12.35;;
52918;SDS011;38793;52.690;6.812;2023-01-23T14:42:51;19.17;;;12.95;;
52918;SDS011;38793;52.690;6.812;2023-01-23T14:45:32;15.35;;;11.95;;
52918;SDS011;38793;52.690;6.812;2023-01-23T14:47:59;22.48;;;13.48;;
52918;SDS011;38793;52.690;6.812;2023-01-23T14:53:05;16.40;;;11.95;;
52918;SDS011;38793;52.690;6.812;2023-01-23T14:55:38;19.15;;;13.10;;
52918;SDS011;38793;52.690;6.812;2023-01-23T14:58:05;19.58;;;13.20;;
52918;SDS011;38793;52.690;6.812;2023-01-23T15:00:37;20.13;;;13.77;;
52918;SDS011;38793;52.690;6.812;2023-01-23T15:03:05;21.60;;;14.02;;
52918;SDS011;38793;52.690;6.812;2023-01-23T15:05:35;19.67;;;14.35;;
52918;SDS011;38793;52.690;6.812;2023-01-23T15:08:04;16.25;;;13.65;;
52918;SDS011;38793;52.690;6.812;2023-01-23T15:10:45;20.17;;;14.20;;
52918;SDS011;38793;52.690;6.812;2023-01-23T15:15:58;19.00;;;14.23;;
52918;SDS011;38793;52.690;6.812;2023-01-23T15:18:28;21.55;;;14.32;;
52918;SDS011;38793;52.690;6.812;2023-01-23T15:20:57;19.10;;;14.18;;
52918;SDS011;38793;52.690;6.812;2023-01-23T15:23:34;24.02;;;15.18;;
52918;SDS011;38793;52.690;6.812;2023-01-23T15:26:08;19.63;;;14.68;;
52918;SDS011;38793;52.690;6.812;2023-01-23T15:28:50;18.23;;;13.00;;
52918;SDS011;38793;52.690;6.812;2023-01-23T15:33:54;20.73;;;13.65;;
52918;SDS011;38793;52.690;6.812;2023-01-23T15:36:34;25.48;;;14.20;;
52918;SDS011;38793;52.690;6.812;2023-01-23T15:39:00;24.85;;;14.32;;
52918;SDS011;38793;52.690;6.812;2023-01-23T15:44:14;29.33;;;15.10;;
52918;SDS011;38793;52.690;6.812;2023-01-23T15:46:41;35.00;;;16.30;;
52918;SDS011;38793;52.690;6.812;2023-01-23T15:49:07;24.93;;;15.33;;
52918;SDS011;38793;52.690;6.812;2023-01-23T15:51:33;24.40;;;16.45;;
52918;SDS011;38793;52.690;6.812;2023-01-23T15:53:59;24.20;;;16.17;;
52918;SDS011;38793;52.690;6.812;2023-01-23T15:56:26;21.35;;;16.05;;
52918;SDS011;38793;52.690;6.812;2023-01-23T15:58:54;21.73;;;14.43;;
52918;SDS011;38793;52.690;6.812;2023-01-23T16:01:20;21.73;;;15.60;;
52918;SDS011;38793;52.690;6.812;2023-01-23T16:03:46;25.33;;;15.15;;
52918;SDS011;38793;52.690;6.812;2023-01-23T16:06:17;23.77;;;16.17;;
52918;SDS011;38793;52.690;6.812;2023-01-23T16:08:45;20.85;;;14.43;;
52918;SDS011;38793;52.690;6.812;2023-01-23T16:11:15;34.00;;;16.45;;
52918;SDS011;38793;52.690;6.812;2023-01-23T16:13:41;21.45;;;15.70;;
52918;SDS011;38793;52.690;6.812;2023-01-23T16:16:13;50.47;;;19.87;;
52918;SDS011;38793;52.690;6.812;2023-01-23T16:18:40;26.08;;;16.30;;
52918;SDS011;38793;52.690;6.812;2023-01-23T16:21:06;25.80;;;16.07;;
52918;SDS011;38793;52.690;6.812;2023-01-23T16:23:37;20.25;;;15.20;;
52918;SDS011;38793;52.690;6.812;2023-01-23T16:26:03;18.50;;;14.67;;
52918;SDS011;38793;52.690;6.812;2023-01-23T16:28:28;23.17;;;15.83;;
52918;SDS011;38793;52.690;6.812;2023-01-23T16:30:56;25.75;;;16.40;;
52918;SDS011;38793;52.690;6.812;2023-01-23T16:33:22;21.60;;;16.07;;
52918;SDS011;38793;52.690;6.812;2023-01-23T16:35:48;19.10;;;14.70;;
52918;SDS011;38793;52.690;6.812;2023-01-23T16:38:22;21.50;;;16.20;;
52918;SDS011;38793;52.690;6.812;2023-01-23T16:40:50;24.95;;;15.65;;
52918;SDS011;38793;52.690;6.812;2023-01-23T16:43:18;25.67;;;16.35;;
52918;SDS011;38793;52.690;6.812;2023-01-23T16:48:09;30.38;;;17.00;;
52918;SDS011;38793;52.690;6.812;2023-01-23T16:53:20;23.00;;;16.60;;